Time;durP1;ratioP1;P1;durP2;ratioP2;P2;SDS_P1;SDS_P2;PMS_P1;PMS_P2;Temp;Humidity;BMP_temperature;BMP_pressure;BME280_temperature;BME280_humidity;BME280_pressure;Samples;Min_cycle;Max_cycle;Signal;HPM_P1;HPM_P2
2021/07/16 00:01:47;;;;;;;;;;;;;;;20.19;100.00;99165.52;1737260;82;20135;-65
2021/07/16 00:04:14;;;;;;;;;;;;;;;20.17;100.00;99166.40;1738137;82;20131;-65
2021/07/16 00:06:40;;;;;;;;;;;;;;;20.16;100.00;99168.08;1737560;82;20434;-66
2021/07/16 00:09:07;;;;;;;;;;;;;;;20.11;100.00;99164.43;1737338;82;20087;-65
2021/07/16 00:11:35;;;;;;;;;;;;;;;20.08;100.00;99155.52;1737414;82;20595;-66
2021/07/16 00:14:04;;;;;;;;;;;;;;;20.07;100.00;99164.83;1737256;82;20179;-66
2021/07/16 00:16:31;;;;;;;;;;;;;;;20.09;100.00;99167.24;1737680;82;20104;-67
2021/07/16 00:18:57;;;;;;;;;;;;;;;20.04;100.00;99166.86;1737422;82;20099;-66
2021/07/16 00:21:24;;;;;;;;;;;;;;;19.99;100.00;99162.95;1737719;82;20154;-65
2021/07/16 00:23:51;;;;;;;;;;;;;;;19.96;100.00;99160.85;1737257;82;21155;-66
2021/07/16 00:26:19;;;;;;;;;;;;;;;19.96;100.00;99161.42;1737999;82;20112;-66
2021/07/16 00:28:46;;;;;;;;;;;;;;;19.97;100.00;99163.04;1737910;82;20418;-66
2021/07/16 00:31:13;;;;;;;;;;;;;;;20.01;100.00;99159.88;1737246;82;20083;-65
2021/07/16 00:33:39;;;;;;;;;;;;;;;20.00;100.00;99159.66;1737205;82;20173;-65
2021/07/16 00:36:07;;;;;;;;;;;;;;;20.00;100.00;99157.73;1737515;82;21175;-66
2021/07/16 00:38:34;;;;;;;;;;;;;;;19.97;100.00;99157.02;1737239;82;20132;-66
2021/07/16 00:41:00;;;;;;;;;;;;;;;19.98;100.00;99159.97;1737213;82;20084;-65
2021/07/16 00:43:28;;;;;;;;;;;;;;;19.97;100.00;99159.75;1737473;82;20209;-66
2021/07/16 00:45:56;;;;;;;;;;;;;;;19.95;100.00;99161.20;1736846;82;20119;-66
2021/07/16 00:48:23;;;;;;;;;;;;;;;19.90;100.00;99154.80;1736885;82;21110;-65
2021/07/16 00:50:52;;;;;;;;;;;;;;;19.89;100.00;99157.83;1736998;82;20095;-66
2021/07/16 00:53:18;;;;;;;;;;;;;;;19.89;100.00;99163.28;1737050;82;20071;-65
2021/07/16 00:55:45;;;;;;;;;;;;;;;19.83;100.00;99157.78;1737694;82;20099;-66
2021/07/16 00:58:13;;;;;;;;;;;;;;;19.82;100.00;99165.16;1737481;82;20099;-65
2021/07/16 01:00:40;;;;;;;;;;;;;;;19.82;100.00;99154.80;1737234;82;21232;-66
2021/07/16 01:03:06;;;;;;;;;;;;;;;19.83;100.00;99162.66;1737258;82;20119;-65
2021/07/16 01:05:34;;;;;;;;;;;;;;;19.80;100.00;99155.15;1737409;82;20092;-65
2021/07/16 01:08:01;;;;;;;;;;;;;;;19.83;100.00;99150.98;1737503;82;20123;-66
2021/07/16 01:10:30;;;;;;;;;;;;;;;19.82;100.00;99161.08;1737297;82;20084;-65
2021/07/16 01:12:57;;;;;;;;;;;;;;;19.80;100.00;99158.44;1717296;82;21234;-65
2021/07/16 01:15:26;;;;;;;;;;;;;;;19.76;100.00;99160.20;1737386;82;20099;-65
2021/07/16 01:17:54;;;;;;;;;;;;;;;19.75;100.00;99157.26;1737665;82;20435;-64
2021/07/16 01:20:27;;;;;;;;;;;;;;;19.76;100.00;99160.20;1737517;82;20466;-65
2021/07/16 01:22:54;;;;;;;;;;;;;;;19.74;100.00;99161.88;1737071;82;20206;-65
2021/07/16 01:25:23;;;;;;;;;;;;;;;19.72;100.00;99152.44;1737539;82;21147;-65
2021/07/16 01:27:53;;;;;;;;;;;;;;;19.69;100.00;99147.87;1737526;82;20419;-66
2021/07/16 01:30:22;;;;;;;;;;;;;;;19.67;100.00;99150.65;1737333;82;20427;-63
2021/07/16 01:32:49;;;;;;;;;;;;;;;19.67;100.00;99154.73;1737501;82;20099;-65
2021/07/16 01:35:17;;;;;;;;;;;;;;;19.70;100.00;99147.33;1737300;82;20134;-67
2021/07/16 01:37:44;;;;;;;;;;;;;;;19.69;100.00;99145.15;1737613;82;21130;-65
2021/07/16 01:40:14;;;;;;;;;;;;;;;19.68;100.00;99140.84;1737224;82;20099;-66
2021/07/16 01:42:43;;;;;;;;;;;;;;;19.65;100.00;99135.23;1735993;82;20097;-66
2021/07/16 01:45:16;;;;;;;;;;;;;;;19.60;100.00;99130.75;1737668;82;20454;-65
2021/07/16 01:47:52;;;;;;;;;;;;;;;19.58;100.00;99128.91;1737314;82;20083;-64
2021/07/16 01:50:19;;;;;;;;;;;;;;;19.54;100.00;99121.14;1737538;82;21779;-63
2021/07/16 01:52:46;;;;;;;;;;;;;;;19.55;100.00;99124.12;1737234;82;20103;-64
2021/07/16 01:55:14;;;;;;;;;;;;;;;19.56;100.00;99120.83;1737119;82;20430;-65
2021/07/16 01:57:53;;;;;;;;;;;;;;;19.57;100.00;99123.77;1737384;82;20496;-64
2021/07/16 02:00:24;;;;;;;;;;;;;;;19.56;100.00;99122.98;1737058;82;20162;-65
2021/07/16 02:02:53;;;;;;;;;;;;;;;19.56;100.00;99119.47;1737077;82;21861;-66
2021/07/16 02:05:23;;;;;;;;;;;;;;;19.52;100.00;99111.70;1736680;82;20172;-66
2021/07/16 02:07:52;;;;;;;;;;;;;;;19.47;100.00;99110.73;1737790;82;20091;-64
2021/07/16 02:10:20;;;;;;;;;;;;;;;19.45;100.00;99108.93;1736754;82;20147;-66
2021/07/16 02:12:48;;;;;;;;;;;;;;;19.44;100.00;99107.88;1737375;82;20119;-66
2021/07/16 02:15:19;;;;;;;;;;;;;;;19.43;100.00;99104.94;1737522;82;20134;-65
2021/07/16 02:17:47;;;;;;;;;;;;;;;19.42;100.00;99097.88;1737487;82;20087;-65
2021/07/16 02:20:35;;;;;;;;;;;;;;;19.42;100.00;99098.66;1737130;82;20093;-66
2021/07/16 02:23:09;;;;;;;;;;;;;;;19.41;100.00;99093.56;1737496;82;20084;-65
2021/07/16 02:25:36;;;;;;;;;;;;;;;19.39;100.00;99095.81;1736827;82;20489;-65
2021/07/16 02:28:12;;;;;;;;;;;;;;;19.39;100.00;99103.41;1737521;82;21102;-66
2021/07/16 02:30:39;;;;;;;;;;;;;;;19.37;100.00;99102.92;1737681;82;20088;-65
2021/07/16 02:33:05;;;;;;;;;;;;;;;19.38;100.00;99105.11;1737879;82;20084;-65
2021/07/16 02:35:32;;;;;;;;;;;;;;;19.42;100.00;99101.95;1737292;82;20115;-66
2021/07/16 02:38:01;;;;;;;;;;;;;;;19.41;100.00;99105.25;1737451;82;20111;-65
2021/07/16 02:40:28;;;;;;;;;;;;;;;19.44;100.00;99107.88;1737189;82;21174;-66
2021/07/16 02:42:54;;;;;;;;;;;;;;;19.45;100.00;99107.56;1737203;82;20159;-65
2021/07/16 02:45:22;;;;;;;;;;;;;;;19.47;100.00;99107.23;1737339;82;20131;-67
2021/07/16 02:47:50;;;;;;;;;;;;;;;19.49;100.00;99113.16;1737795;82;20096;-66
2021/07/16 02:50:27;;;;;;;;;;;;;;;19.55;100.00;99113.77;1737239;82;20123;-65
2021/07/16 02:52:53;;;;;;;;;;;;;;;19.59;100.00;99124.26;1736323;82;21241;-67
2021/07/16 02:55:20;;;;;;;;;;;;;;;19.64;100.00;99117.28;1746083;81;20099;-66
2021/07/16 02:57:47;;;;;;;;;;;;;;;19.70;100.00;99120.11;1747708;82;20099;-67
2021/07/16 03:00:17;;;;;;;;;;;;;;;19.75;100.00;99119.13;1747365;82;20126;-67
2021/07/16 03:02:45;;;;;;;;;;;;;;;19.80;100.00;99118.95;1747149;82;20139;-66
2021/07/16 03:05:18;;;;;;;;;;;;;;;19.84;100.00;99122.07;1747807;82;22033;-68
2021/07/16 03:07:44;;;;;;;;;;;;;;;19.91;100.00;99121.54;1747650;81;20114;-66
2021/07/16 03:10:17;;;;;;;;;;;;;;;19.99;100.00;99119.37;1747998;82;20099;-67
2021/07/16 03:12:44;;;;;;;;;;;;;;;20.08;100.00;99128.28;1746902;82;20118;-67
2021/07/16 03:15:15;;;;;;;;;;;;;;;20.17;100.00;99127.46;1747495;82;20071;-66
2021/07/16 03:17:42;;;;;;;;;;;;;;;20.22;100.00;99128.06;1747272;82;21146;-67
2021/07/16 03:20:13;;;;;;;;;;;;;;;20.28;100.00;99132.76;1747167;82;20107;-65
2021/07/16 03:22:41;;;;;;;;;;;;;;;20.34;100.00;99134.19;1747570;82;20147;-67
2021/07/16 03:25:10;;;;;;;;;;;;;;;20.38;100.00;99141.92;1747697;82;20148;-67
2021/07/16 03:27:37;;;;;;;;;;;;;;;20.43;100.00;99145.84;1747566;81;20465;-67
2021/07/16 03:30:07;;;;;;;;;;;;;;;20.47;100.00;99149.49;1747459;82;20414;-67
2021/07/16 03:32:34;;;;;;;;;;;;;;;20.57;100.00;99147.55;1747386;82;20446;-67
2021/07/16 03:35:01;;;;;;;;;;;;;;;20.63;100.00;99150.30;1747644;82;20111;-67
2021/07/16 03:37:27;;;;;;;;;;;;;;;20.72;100.00;99147.76;1746736;82;20162;-67
2021/07/16 03:39:53;;;;;;;;;;;;;;;20.78;100.00;99142.14;1748081;82;20126;-67
2021/07/16 03:42:20;;;;;;;;;;;;;;;20.87;100.00;99145.03;1747685;82;21154;-67
2021/07/16 03:44:48;;;;;;;;;;;;;;;20.97;100.00;99147.94;1747861;81;20077;-67
2021/07/16 03:47:16;;;;;;;;;;;;;;;21.10;100.00;99142.76;1747787;82;20193;-68
2021/07/16 03:49:44;;;;;;;;;;;;;;;21.24;100.00;99144.40;1747609;82;20114;-67
2021/07/16 03:52:11;;;;;;;;;;;;;;;21.36;100.00;99145.27;1747526;82;20118;-68
2021/07/16 03:54:40;;;;;;;;;;;;;;;21.46;100.00;99144.09;1742382;81;21159;-67
2021/07/16 03:57:08;;;;;;;;;;;;;;;21.56;100.00;99140.93;1734991;82;20132;-67
2021/07/16 03:59:34;;;;;;;;;;;;;;;21.66;100.00;99149.27;1735139;82;20131;-68
2021/07/16 04:02:02;;;;;;;;;;;;;;;21.76;100.00;99150.19;1734946;82;20087;-68
2021/07/16 04:04:29;;;;;;;;;;;;;;;21.88;100.00;99154.89;1735272;82;20112;-67
2021/07/16 04:06:58;;;;;;;;;;;;;;;21.98;100.00;99152.29;1735084;82;20099;-68
2021/07/16 04:09:26;;;;;;;;;;;;;;;22.07;100.00;99151.59;1734962;82;20119;-68
2021/07/16 04:12:14;;;;;;;;;;;;;;;22.15;100.00;99149.34;1735006;82;20085;-67
2021/07/16 04:14:42;;;;;;;;;;;;;;;22.20;100.00;99149.72;1734999;82;20582;-68
2021/07/16 04:17:12;;;;;;;;;;;;;;;22.38;100.00;99151.08;1735062;82;20095;-68
2021/07/16 04:19:40;;;;;;;;;;;;;;;22.57;100.00;99153.81;1735012;82;21181;-67
2021/07/16 04:22:07;;;;;;;;;;;;;;;22.74;100.00;99159.03;1735000;82;20103;-68
2021/07/16 04:24:35;;;;;;;;;;;;;;;22.88;100.00;99159.47;1735110;82;20096;-69
2021/07/16 04:27:02;;;;;;;;;;;;;;;22.96;100.00;99159.09;1734958;82;20715;-68
2021/07/16 04:29:31;;;;;;;;;;;;;;;23.15;100.00;99163.98;1735249;82;20099;-69
2021/07/16 04:31:58;;;;;;;;;;;;;;;23.33;100.00;99159.02;1735000;82;21130;-69
2021/07/16 04:34:26;;;;;;;;;;;;;;;23.42;100.00;99160.21;1734964;82;20529;-68
2021/07/16 04:36:54;;;;;;;;;;;;;;;23.50;100.00;99162.81;1734879;82;20148;-69
2021/07/16 04:39:21;;;;;;;;;;;;;;;23.62;100.00;99170.18;1713152;82;20623;-69
2021/07/16 04:41:47;;;;;;;;;;;;;;;23.79;100.00;99172.38;1735210;82;20087;-68
2021/07/16 04:44:15;;;;;;;;;;;;;;;23.84;100.00;99164.72;1734930;82;21161;-70
2021/07/16 04:46:44;;;;;;;;;;;;;;;23.93;100.00;99173.58;1734912;82;20083;-68
2021/07/16 04:49:11;;;;;;;;;;;;;;;24.06;100.00;99167.44;1734897;82;20418;-69
2021/07/16 04:51:38;;;;;;;;;;;;;;;24.27;100.00;99175.38;1734931;82;20091;-68
2021/07/16 04:54:05;;;;;;;;;;;;;;;24.51;100.00;99182.66;1735418;82;20152;-69
2021/07/16 04:56:32;;;;;;;;;;;;;;;24.73;100.00;99179.83;1742643;82;21086;-69
2021/07/16 04:58:58;;;;;;;;;;;;;;;24.94;100.00;99186.37;1716200;82;20123;-68
2021/07/16 05:01:26;;;;;;;;;;;;;;;24.95;100.00;99186.59;1742321;82;20083;-69
2021/07/16 05:03:54;;;;;;;;;;;;;;;25.02;100.00;99187.33;1742245;82;20143;-69
2021/07/16 05:06:21;;;;;;;;;;;;;;;25.06;100.00;99192.87;1742351;82;20442;-69
2021/07/16 05:08:49;;;;;;;;;;;;;;;25.13;100.00;99190.29;1742878;82;21103;-69
2021/07/16 05:11:16;;;;;;;;;;;;;;;25.28;100.00;99188.08;1742834;82;20438;-70
2021/07/16 05:13:44;;;;;;;;;;;;;;;25.39;100.00;99193.22;1742274;82;20130;-69
2021/07/16 05:16:11;;;;;;;;;;;;;;;25.58;100.00;99200.67;1716184;82;20099;-71
2021/07/16 05:18:39;;;;;;;;;;;;;;;25.78;100.00;99200.65;1742470;82;20075;-70
2021/07/16 05:21:08;;;;;;;;;;;;;;;25.81;100.00;99210.32;1741375;81;21151;-69
2021/07/16 05:23:36;;;;;;;;;;;;;;;25.87;100.00;99207.53;1742413;82;20473;-70
2021/07/16 05:26:03;;;;;;;;;;;;;;;25.96;100.00;99211.41;1742096;82;20158;-70
2021/07/16 05:28:29;;;;;;;;;;;;;;;26.19;100.00;99210.06;1742407;82;20071;-68
2021/07/16 05:30:56;;;;;;;;;;;;;;;26.37;100.00;99216.44;1742246;81;20549;-71
2021/07/16 05:33:24;;;;;;;;;;;;;;;26.50;100.00;99213.69;1714240;82;21136;-70
2021/07/16 05:35:52;;;;;;;;;;;;;;;26.83;100.00;99213.65;1741406;82;20108;-70
2021/07/16 05:38:25;;;;;;;;;;;;;;;27.00;100.00;99213.10;1742196;82;20174;-71
2021/07/16 05:40:54;;;;;;;;;;;;;;;27.07;100.00;99213.77;1741287;82;20213;-70
2021/07/16 05:43:22;;;;;;;;;;;;;;;27.19;100.00;99220.45;1742280;82;20477;-70
2021/07/16 05:45:50;;;;;;;;;;;;;;;27.29;100.00;99214.31;1742432;82;21996;-70
2021/07/16 05:48:17;;;;;;;;;;;;;;;27.30;100.00;99220.02;1742191;82;20115;-70
2021/07/16 05:50:46;;;;;;;;;;;;;;;27.35;100.00;99216.93;1740816;82;20186;-67
2021/07/16 05:53:14;;;;;;;;;;;;;;;27.73;100.00;99223.86;1741040;82;20116;-67
2021/07/16 05:55:40;;;;;;;;;;;;;;;27.90;99.05;99219.14;1739746;82;20457;-67
2021/07/16 05:58:07;;;;;;;;;;;;;;;27.96;98.37;99216.27;1738520;81;21194;-70
2021/07/16 06:00:35;;;;;;;;;;;;;;;27.98;95.52;99224.17;1738947;82;20126;-70
2021/07/16 06:03:01;;;;;;;;;;;;;;;28.16;92.47;99226.50;1738974;81;20075;-70
2021/07/16 06:05:28;;;;;;;;;;;;;;;28.40;92.88;99229.88;1737933;82;20154;-71
2021/07/16 06:07:58;;;;;;;;;;;;;;;28.63;93.39;99226.31;1738758;82;20520;-72
2021/07/16 06:10:27;;;;;;;;;;;;;;;28.97;89.32;99229.52;1738584;82;20319;-71
2021/07/16 06:12:54;;;;;;;;;;;;;;;29.03;86.51;99231.53;1738524;81;20169;-67
2021/07/16 06:15:21;;;;;;;;;;;;;;;29.12;85.05;99224.88;1738694;82;20096;-68
2021/07/16 06:17:48;;;;;;;;;;;;;;;29.11;83.47;99228.25;1738853;82;20218;-69
2021/07/16 06:20:15;;;;;;;;;;;;;;;29.11;81.80;99220.55;1739045;82;20150;-69
2021/07/16 06:22:43;;;;;;;;;;;;;;;29.22;83.75;99224.92;1738683;82;21213;-70
2021/07/16 06:25:12;;;;;;;;;;;;;;;29.56;80.38;99224.67;1738502;82;20169;-72
2021/07/16 06:27:39;;;;;;;;;;;;;;;29.78;78.54;99230.31;1738252;81;20135;-72
2021/07/16 06:30:09;;;;;;;;;;;;;;;30.01;76.82;99229.39;1738818;82;20138;-71
2021/07/16 06:32:36;;;;;;;;;;;;;;;29.96;74.31;99231.13;1737241;82;20115;-73
2021/07/16 06:35:04;;;;;;;;;;;;;;;30.09;74.90;99227.41;1738308;82;21205;-71
2021/07/16 06:37:30;;;;;;;;;;;;;;;30.23;72.62;99229.39;1731819;81;20164;-72
2021/07/16 06:39:57;;;;;;;;;;;;;;;30.41;72.50;99232.22;1712643;81;20162;-70
2021/07/16 06:42:26;;;;;;;;;;;;;;;30.53;71.65;99234.59;1750929;81;20146;-71
2021/07/16 06:44:53;;;;;;;;;;;;;;;30.42;70.38;99231.80;1736235;82;20165;-67
2021/07/16 06:47:20;;;;;;;;;;;;;;;30.29;71.18;99235.56;1721289;83;21155;-69
2021/07/16 06:49:53;;;;;;;;;;;;;;;30.25;72.04;99238.13;1709695;83;20104;-70
2021/07/16 06:52:22;;;;;;;;;;;;;;;30.35;70.79;99238.72;1719609;83;20124;-69
2021/07/16 06:54:49;;;;;;;;;;;;;;;30.42;71.59;99231.80;1720827;82;20139;-68
2021/07/16 06:57:16;;;;;;;;;;;;;;;30.38;70.25;99229.64;1718516;83;20192;-68
2021/07/16 06:59:42;;;;;;;;;;;;;;;30.65;70.75;99225.88;1722359;83;21819;-68
2021/07/16 07:02:09;;;;;;;;;;;;;;;30.89;69.69;99227.62;1722543;83;20156;-72
2021/07/16 07:04:36;;;;;;;;;;;;;;;31.15;67.02;99236.09;1722441;83;20208;-71
2021/07/16 07:07:05;;;;;;;;;;;;;;;31.36;66.09;99235.23;1723097;83;20077;-71
2021/07/16 07:09:44;;;;;;;;;;;;;;;31.50;67.78;99232.41;1723036;83;20149;-70
2021/07/16 07:12:16;;;;;;;;;;;;;;;31.41;65.84;99230.69;1723136;83;20168;-68
2021/07/16 07:14:43;;;;;;;;;;;;;;;31.14;66.20;99227.59;1723246;83;20125;-70
2021/07/16 07:17:11;;;;;;;;;;;;;;;31.11;65.96;99232.52;1722950;83;20136;-65
2021/07/16 07:19:42;;;;;;;;;;;;;;;31.21;65.28;99229.52;1723426;83;20344;-68
2021/07/16 07:22:08;;;;;;;;;;;;;;;31.16;66.69;99227.95;1714188;83;20229;-69
2021/07/16 07:24:36;;;;;;;;;;;;;;;31.25;65.27;99228.92;1712070;83;21159;-72
2021/07/16 07:27:03;;;;;;;;;;;;;;;31.48;64.52;99229.27;1712960;83;20094;-69
2021/07/16 07:29:33;;;;;;;;;;;;;;;31.61;63.68;99222.06;1690832;83;20499;-67
2021/07/16 07:32:04;;;;;;;;;;;;;;;31.78;66.03;99226.54;1713195;83;20125;-70
2021/07/16 07:34:36;;;;;;;;;;;;;;;31.99;65.65;99228.41;1713760;83;20191;-71
2021/07/16 07:37:03;;;;;;;;;;;;;;;32.30;63.58;99232.77;1720786;83;21568;-70
2021/07/16 07:39:35;;;;;;;;;;;;;;;32.58;62.42;99229.75;1721237;83;20141;-70
2021/07/16 07:42:11;;;;;;;;;;;;;;;32.56;61.31;99236.34;1719259;83;20207;-70
2021/07/16 07:44:40;;;;;;;;;;;;;;;32.13;63.17;99235.25;1721181;83;20142;-71
2021/07/16 07:47:10;;;;;;;;;;;;;;;32.32;62.60;99236.70;1720901;83;20146;-72
2021/07/16 07:49:37;;;;;;;;;;;;;;;32.49;60.98;99239.19;1697475;83;21150;-73
2021/07/16 07:52:08;;;;;;;;;;;;;;;32.55;61.06;99238.13;1720908;83;20085;-72
2021/07/16 07:54:42;;;;;;;;;;;;;;;32.66;57.38;99238.84;1733873;82;20082;-68
2021/07/16 07:57:12;;;;;;;;;;;;;;;32.30;58.24;99241.09;1744218;82;20118;-71
2021/07/16 07:59:42;;;;;;;;;;;;;;;32.15;59.21;99240.41;1744435;82;20095;-70
2021/07/16 08:02:09;;;;;;;;;;;;;;;32.16;59.46;99248.31;1743520;82;21153;-69
2021/07/16 08:04:37;;;;;;;;;;;;;;;32.44;59.63;99250.09;1743996;82;20103;-71
2021/07/16 08:07:06;;;;;;;;;;;;;;;32.50;58.62;99251.86;1744443;82;20147;-70
2021/07/16 08:09:35;;;;;;;;;;;;;;;32.41;57.85;99248.72;1744548;82;20122;-70
2021/07/16 08:12:03;;;;;;;;;;;;;;;32.56;57.20;99246.64;1744554;82;20201;-69
2021/07/16 08:14:30;;;;;;;;;;;;;;;32.76;57.58;99235.77;1744594;82;21049;-69
2021/07/16 08:17:00;;;;;;;;;;;;;;;32.60;56.06;99237.08;1743677;82;20162;-71
2021/07/16 08:19:27;;;;;;;;;;;;;;;32.71;56.95;99242.56;1744554;82;20434;-68
2021/07/16 08:21:54;;;;;;;;;;;;;;;32.94;56.50;99244.70;1744662;82;20488;-69
2021/07/16 08:24:22;;;;;;;;;;;;;;;33.06;54.50;99243.42;1744575;82;20189;-71
2021/07/16 08:26:51;;;;;;;;;;;;;;;33.14;54.80;99244.91;1744392;82;20087;-70
2021/07/16 08:29:18;;;;;;;;;;;;;;;33.36;54.08;99244.06;1744092;82;20492;-70
2021/07/16 08:31:46;;;;;;;;;;;;;;;33.39;53.56;99245.22;1744171;82;20355;-72
2021/07/16 08:34:14;;;;;;;;;;;;;;;33.50;52.37;99245.28;1744642;82;20099;-70
2021/07/16 08:36:41;;;;;;;;;;;;;;;33.55;54.22;99244.64;1723418;82;20155;-71
2021/07/16 08:39:07;;;;;;;;;;;;;;;33.29;56.04;99245.53;1744562;82;21161;-70
2021/07/16 08:41:33;;;;;;;;;;;;;;;33.01;54.47;99252.97;1744317;82;20079;-70
2021/07/16 08:44:01;;;;;;;;;;;;;;;33.01;54.86;99252.97;1744553;82;20147;-71
2021/07/16 08:46:30;;;;;;;;;;;;;;;33.35;54.96;99253.63;1744245;82;20994;-71
2021/07/16 08:49:05;;;;;;;;;;;;;;;33.42;52.99;99245.80;1744400;82;20161;-73
2021/07/16 08:51:33;;;;;;;;;;;;;;;33.44;53.64;99246.97;1740894;82;21213;-71
2021/07/16 08:54:04;;;;;;;;;;;;;;;33.55;53.57;99246.81;1723071;82;20071;-71
2021/07/16 08:56:32;;;;;;;;;;;;;;;33.79;51.25;99245.55;1748781;82;20154;-72
2021/07/16 08:59:00;;;;;;;;;;;;;;;33.99;50.60;99251.23;1752378;82;20147;-71
2021/07/16 09:01:27;;;;;;;;;;;;;;;34.44;49.12;99248.94;1752761;82;20102;-70
2021/07/16 09:04:03;;;;;;;;;;;;;;;34.73;47.04;99250.67;1752429;82;21581;-71
2021/07/16 09:06:52;;;;;;;;;;;;;;;34.65;45.50;99245.05;1722780;82;20118;-68
2021/07/16 09:09:21;;;;;;;;;;;;;;;34.54;45.98;99245.22;1751425;81;20098;-72
2021/07/16 09:11:53;;;;;;;;;;;;;;;34.49;48.27;99249.06;1751030;81;20107;-72
2021/07/16 09:14:24;;;;;;;;;;;;;;;34.55;46.16;99242.59;1752343;82;20103;-72
2021/07/16 09:17:01;;;;;;;;;;;;;;;34.78;47.10;99247.39;1723710;82;20494;-71
2021/07/16 09:19:35;;;;;;;;;;;;;;;34.75;46.10;99238.48;1740934;81;20100;-69
2021/07/16 09:22:14;;;;;;;;;;;;;;;34.81;46.53;99240.78;1696297;83;20113;-71
2021/07/16 09:24:58;;;;;;;;;;;;;;;34.56;47.05;99244.77;1731586;83;20175;-71
2021/07/16 09:27:50;;;;;;;;;;;;;;;34.43;45.21;99237.63;1731976;83;20177;-69
2021/07/16 09:30:23;;;;;;;;;;;;;;;34.47;46.05;99240.34;1700975;83;21189;-71
2021/07/16 09:32:55;;;;;;;;;;;;;;;34.96;44.58;99244.88;1731798;83;20529;-70
2021/07/16 09:35:47;;;;;;;;;;;;;;;35.16;45.81;99242.16;1731890;82;20140;-69
2021/07/16 09:38:17;;;;;;;;;;;;;;;35.04;44.45;99245.55;1692265;83;20495;-70
2021/07/16 09:40:47;;;;;;;;;;;;;;;35.30;43.41;99247.42;1730298;81;20202;-71
2021/07/16 09:43:16;;;;;;;;;;;;;;;35.41;41.79;99250.02;1745321;81;21775;-69
2021/07/16 09:45:45;;;;;;;;;;;;;;;35.00;44.00;99242.81;1745298;82;20089;-70
2021/07/16 09:48:28;;;;;;;;;;;;;;;35.09;44.21;99239.48;1691222;82;20498;-69
2021/07/16 09:51:47;;;;;;;;;;;;;;;34.94;44.29;99243.14;1744695;81;20131;-71
2021/07/16 09:54:23;;;;;;;;;;;;;;;;;;;;;
2021/07/16 09:56:55;;;;;;;;;;;;;;;35.24;43.52;99244.20;1744770;81;23056;-69
2021/07/16 09:59:25;;;;;;;;;;;;;;;35.33;45.62;99244.38;1744839;81;20151;-70
2021/07/16 10:01:52;;;;;;;;;;;;;;;35.63;44.19;99246.20;1745067;81;20122;-69
2021/07/16 10:04:23;;;;;;;;;;;;;;;35.51;41.36;99245.43;1745352;81;20499;-69
2021/07/16 10:06:52;;;;;;;;;;;;;;;35.60;42.33;99245.67;1745223;82;20165;-68
2021/07/16 10:09:19;;;;;;;;;;;;;;;35.78;40.55;99242.48;1744545;81;21167;-69
2021/07/16 10:11:49;;;;;;;;;;;;;;;35.60;40.02;99243.66;1745273;81;20146;-67
2021/07/16 10:14:17;;;;;;;;;;;;;;;35.55;42.65;99242.75;1745391;82;20170;-69
2021/07/16 10:16:46;;;;;;;;;;;;;;;35.78;41.09;99241.09;1744901;81;20161;-67
2021/07/16 10:19:19;;;;;;;;;;;;;;;35.60;39.00;99240.88;1745442;82;20115;-70
2021/07/16 10:21:46;;;;;;;;;;;;;;;35.19;39.98;99240.68;1744754;81;23803;-68
2021/07/16 10:24:21;;;;;;;;;;;;;;;34.78;41.52;99228.48;1745495;82;20087;-68
2021/07/16 10:26:51;;;;;;;;;;;;;;;34.65;43.87;99230.33;1745227;82;20433;-69
2021/07/16 10:29:45;;;;;;;;;;;;;;;34.83;42.60;99233.57;1744909;82;20194;-70
2021/07/16 10:32:33;;;;;;;;;;;;;;;34.79;41.73;99232.25;1744698;82;20143;-70
2021/07/16 10:35:20;;;;;;;;;;;;;;;34.85;41.49;99235.94;1744519;82;21872;-70
2021/07/16 10:37:52;;;;;;;;;;;;;;;34.73;41.93;99229.77;1752965;80;20581;-70
2021/07/16 10:40:43;;;;;;;;;;;;;;;35.10;41.57;99225.73;1756118;81;20182;-71
2021/07/16 10:43:31;;;;;;;;;;;;;;;35.03;42.34;99224.44;1754738;81;20315;-71
2021/07/16 10:45:59;;;;;;;;;;;;;;;35.26;41.02;99216.05;1755716;81;20146;-69
2021/07/16 10:48:37;;;;;;;;;;;;;;;35.57;40.90;99221.36;1755900;80;21137;-72
2021/07/16 10:51:07;;;;;;;;;;;;;;;35.67;40.98;99219.59;1756236;81;20086;-71
2021/07/16 10:53:43;;;;;;;;;;;;;;;35.80;39.78;99219.11;1756049;81;20122;-69
2021/07/16 10:56:19;;;;;;;;;;;;;;;35.75;39.59;99214.05;1755768;80;20151;-70
2021/07/16 10:58:52;;;;;;;;;;;;;;;35.87;39.61;99211.97;1725814;81;20131;-63
2021/07/16 11:01:35;;;;;;;;;;;;;;;35.71;39.81;99210.53;1755857;80;22010;-68
2021/07/16 11:04:07;;;;;;;;;;;;;;;35.60;41.08;99201.80;1755344;80;20102;-70
2021/07/16 11:06:51;;;;;;;;;;;;;;;35.54;41.54;99199.30;1754853;80;20177;-70
2021/07/16 11:09:37;;;;;;;;;;;;;;;35.83;41.16;99198.69;1755482;81;20141;-70
2021/07/16 11:12:26;;;;;;;;;;;;;;;35.92;40.21;99196.70;1755704;81;20091;-67
2021/07/16 11:14:54;;;;;;;;;;;;;;;36.02;38.50;99192.87;1754633;81;21147;-69
2021/07/16 11:17:36;;;;;;;;;;;;;;;35.69;40.34;99191.42;1755830;81;20153;-70
2021/07/16 11:20:10;;;;;;;;;;;;;;;35.33;41.29;99189.98;1754905;81;20106;-69
2021/07/16 11:22:55;;;;;;;;;;;;;;;34.64;42.23;99180.75;1755793;80;20256;-69
2021/07/16 11:25:24;;;;;;;;;;;;;;;34.52;43.27;99182.16;1756157;80;20420;-69
2021/07/16 11:27:50;;;;;;;;;;;;;;;34.87;42.85;99176.38;1756531;80;21065;-69
2021/07/16 11:30:17;;;;;;;;;;;;;;;35.25;41.06;99182.38;1755602;80;20139;-68
2021/07/16 11:32:50;;;;;;;;;;;;;;;35.45;40.39;99183.77;1755687;80;20472;-70
2021/07/16 11:35:17;;;;;;;;;;;;;;;35.53;39.45;99176.80;1755064;81;20106;-70
2021/07/16 11:37:48;;;;;;;;;;;;;;;35.75;40.09;99176.36;1744302;81;20218;-69
2021/07/16 11:40:20;;;;;;;;;;;;;;;36.04;40.27;99170.87;1737092;82;21149;-70
2021/07/16 11:42:50;;;;;;;;;;;;;;;36.13;41.22;99173.85;1738242;82;20083;-68
2021/07/16 11:45:32;;;;;;;;;;;;;;;36.25;40.95;99175.16;1735656;82;20452;-69
2021/07/16 11:48:22;;;;;;;;;;;;;;;36.09;39.10;99172.37;1737272;81;20123;-68
2021/07/16 11:50:52;;;;;;;;;;;;;;;35.99;39.50;99166.60;1663780;85;20090;-69
2021/07/16 11:53:23;;;;;;;;;;;;;;;36.20;39.31;99170.88;1663875;86;22270;-68
2021/07/16 11:55:55;;;;;;;;;;;;;;;36.16;39.25;99170.20;1663759;86;20162;-71
2021/07/16 11:58:22;;;;;;;;;;;;;;;36.25;39.78;99170.97;1663152;86;20193;-70
2021/07/16 12:00:49;;;;;;;;;;;;;;;36.06;39.05;99174.80;1663523;86;20480;-68
2021/07/16 12:03:21;;;;;;;;;;;;;;;35.76;39.58;99177.91;1663236;86;20465;-69
2021/07/16 12:05:52;;;;;;;;;;;;;;;35.91;40.74;99183.95;1662775;83;21174;-68
2021/07/16 12:08:22;;;;;;;;;;;;;;;35.75;40.47;99185.52;1663577;86;20114;-70
2021/07/16 12:10:49;;;;;;;;;;;;;;;35.71;41.58;99180.61;1663493;86;20130;-69
2021/07/16 12:13:18;;;;;;;;;;;;;;;35.73;42.15;99180.97;1663701;86;20109;-67
2021/07/16 12:15:45;;;;;;;;;;;;;;;35.66;40.40;99174.15;1663686;86;20436;-69
2021/07/16 12:18:12;;;;;;;;;;;;;;;35.52;40.34;99176.61;1663357;86;21163;-70
2021/07/16 12:20:41;;;;;;;;;;;;;;;35.80;40.00;99175.22;1663076;86;20446;-71
2021/07/16 12:23:10;;;;;;;;;;;;;;;36.06;40.56;99176.79;1663468;86;20125;-70
2021/07/16 12:25:37;;;;;;;;;;;;;;;36.38;38.73;99165.45;1663559;86;20138;-70
2021/07/16 12:28:09;;;;;;;;;;;;;;;36.06;38.84;99172.02;1663830;86;20471;-70
2021/07/16 12:30:39;;;;;;;;;;;;;;;35.95;39.14;99167.29;1662842;86;21723;-72
2021/07/16 12:33:12;;;;;;;;;;;;;;;36.14;40.11;99166.28;1663146;86;20177;-70
2021/07/16 12:35:40;;;;;;;;;;;;;;;36.17;40.48;99165.40;1663263;86;20125;-67
2021/07/16 12:38:13;;;;;;;;;;;;;;;36.03;40.36;99157.50;1663701;86;20435;-70
2021/07/16 12:40:42;;;;;;;;;;;;;;;35.89;38.60;99150.09;1679422;83;20164;-70
2021/07/16 12:43:16;;;;;;;;;;;;;;;35.98;39.26;99151.05;1654036;85;20127;-72
2021/07/16 12:45:55;;;;;;;;;;;;;;;35.82;40.11;99150.45;1685152;83;20167;-71
2021/07/16 12:48:30;;;;;;;;;;;;;;;36.07;38.79;99144.86;1686089;84;20134;-70
2021/07/16 12:51:09;;;;;;;;;;;;;;;36.14;39.80;99155.11;1685195;83;20108;-70
2021/07/16 12:53:55;;;;;;;;;;;;;;;35.68;41.54;99145.20;1685276;84;20215;-71
2021/07/16 12:56:35;;;;;;;;;;;;;;;35.56;42.02;99148.64;1678276;84;21151;-73
2021/07/16 12:59:21;;;;;;;;;;;;;;;35.64;41.07;99144.48;1679151;84;20104;-68